Time;durP1;ratioP1;P1;durP2;ratioP2;P2;SDS_P1;SDS_P2;PMS_P1;PMS_P2;Temp;Humidity;BMP_temperature;BMP_pressure;BME280_temperature;BME280_humidity;BME280_pressure;Samples;Min_cycle;Max_cycle;Signal;HPM_P1;HPM_P2
2024/03/28 00:01:24;;;;;;;5.75;4.53;;;9.10;99.90;;;;;;4961667;28;20026;-86
2024/03/28 00:03:52;;;;;;;5.00;4.00;;;9.10;99.90;;;;;;4977621;28;20015;-86
2024/03/28 00:06:19;;;;;;;5.53;4.40;;;9.10;99.90;;;;;;4977573;28;20026;-86
2024/03/28 00:08:44;;;;;;;5.25;4.20;;;9.10;99.90;;;;;;4961569;28;20038;-87
2024/03/28 00:11:13;;;;;;;4.90;4.32;;;9.10;99.90;;;;;;4977010;28;20387;-87
2024/03/28 00:13:41;;;;;;;5.97;4.53;;;9.10;99.90;;;;;;4977381;28;20022;-86
2024/03/28 00:16:07;;;;;;;6.80;4.95;;;9.10;99.90;;;;;;4977758;28;20054;-85
2024/03/28 00:18:33;;;;;;;5.10;4.45;;;9.20;99.90;;;;;;4961317;28;20029;-85
2024/03/28 00:21:02;;;;;;;5.40;4.80;;;9.20;99.90;;;;;;4961653;28;20108;-86
2024/03/28 00:23:29;;;;;;;5.93;4.68;;;9.10;99.90;;;;;;4977656;28;20061;-85
2024/03/28 00:26:05;;;;;;;6.35;4.68;;;9.20;99.90;;;;;;4977487;28;20481;-85
2024/03/28 00:28:31;;;;;;;5.85;4.40;;;9.20;99.90;;;;;;4977677;28;20081;-86
2024/03/28 00:30:57;;;;;;;5.65;4.60;;;9.20;99.90;;;;;;4961007;28;20027;-86
2024/03/28 00:33:26;;;;;;;4.85;4.30;;;9.20;99.90;;;;;;4977674;28;20109;-86
2024/03/28 00:35:52;;;;;;;6.20;5.05;;;9.30;99.90;;;;;;4977368;28;20026;-85
2024/03/28 00:38:17;;;;;;;6.25;4.78;;;9.20;99.90;;;;;;4961573;28;20394;-86
2024/03/28 00:40:54;;;;;;;6.50;4.97;;;9.30;99.90;;;;;;4977963;28;20073;-85
2024/03/28 00:43:20;;;;;;;5.93;4.63;;;9.30;99.90;;;;;;4977537;28;20014;-86
2024/03/28 00:45:46;;;;;;;4.78;4.15;;;9.30;99.90;;;;;;4977392;28;20030;-86
2024/03/28 00:48:16;;;;;;;5.53;4.40;;;9.20;99.90;;;;;;4994736;28;20060;-86
2024/03/28 00:50:42;;;;;;;5.28;4.10;;;9.20;99.90;;;;;;4980427;28;20053;-86
2024/03/28 00:53:08;;;;;;;4.95;4.18;;;9.30;99.90;;;;;;4948981;28;20478;-86
2024/03/28 00:55:34;;;;;;;6.40;4.47;;;9.30;99.90;;;;;;4998341;28;20054;-85
2024/03/28 00:57:59;;;;;;;6.75;4.95;;;9.30;99.90;;;;;;4977621;28;20047;-85
2024/03/28 01:00:25;;;;;;;6.82;4.88;;;9.30;99.90;;;;;;4979333;28;20022;-86
2024/03/28 01:02:51;;;;;;;5.60;4.53;;;9.20;99.90;;;;;;4995518;28;20034;-86
2024/03/28 01:05:17;;;;;;;5.20;4.25;;;9.30;99.90;;;;;;5001070;28;20034;-86
2024/03/28 01:07:43;;;;;;;6.15;4.60;;;9.20;99.90;;;;;;4983472;28;20042;-86
2024/03/28 01:10:09;;;;;;;5.45;4.28;;;9.30;99.90;;;;;;5001113;28;20074;-85
2024/03/28 01:12:36;;;;;;;5.20;4.22;;;9.30;99.90;;;;;;4975034;28;20022;-85
2024/03/28 01:15:02;;;;;;;5.45;4.20;;;9.30;99.90;;;;;;4990676;28;20105;-86
2024/03/28 01:17:27;;;;;;;5.80;4.50;;;9.30;99.90;;;;;;4978524;28;20035;-85
2024/03/28 01:19:53;;;;;;;5.40;4.25;;;9.30;99.90;;;;;;4977315;28;20026;-86
2024/03/28 01:22:19;;;;;;;5.07;4.40;;;9.30;99.90;;;;;;4976817;28;20114;-86
2024/03/28 01:24:48;;;;;;;4.60;4.15;;;9.30;99.90;;;;;;4976714;28;20062;-85
2024/03/28 01:27:14;;;;;;;4.35;3.70;;;9.30;99.90;;;;;;4960774;28;20455;-84
2024/03/28 01:29:40;;;;;;;5.07;4.18;;;9.30;99.90;;;;;;4977067;28;20073;-87
2024/03/28 01:32:05;;;;;;;5.15;4.13;;;9.30;99.90;;;;;;4976327;28;20046;-85
2024/03/28 01:34:31;;;;;;;4.47;4.07;;;9.30;99.90;;;;;;4976866;28;20027;-85
2024/03/28 01:36:57;;;;;;;5.60;3.83;;;9.30;99.90;;;;;;4960440;28;20459;-85
2024/03/28 01:39:22;;;;;;;5.03;3.90;;;9.30;99.90;;;;;;4976945;28;20023;-85
2024/03/28 01:41:55;;;;;;;4.30;3.90;;;9.30;99.90;;;;;;4976493;28;20026;-84
2024/03/28 01:44:23;;;;;;;4.15;3.75;;;9.20;99.90;;;;;;4977716;28;20027;-86
2024/03/28 01:46:50;;;;;;;5.82;4.00;;;9.20;99.90;;;;;;4977845;28;20124;-85
2024/03/28 01:49:16;;;;;;;6.43;4.63;;;9.20;99.90;;;;;;4977985;28;20015;-85
2024/03/28 01:51:46;;;;;;;6.25;4.72;;;9.10;99.90;;;;;;4976618;28;20027;-85
2024/03/28 01:54:13;;;;;;;6.38;5.40;;;9.10;99.90;;;;;;4960151;28;20019;-86
2024/03/28 01:56:40;;;;;;;5.43;4.80;;;9.10;99.90;;;;;;4977727;28;20034;-86
2024/03/28 01:59:06;;;;;;;5.90;5.30;;;9.00;99.90;;;;;;4976072;28;20053;-86
2024/03/28 02:01:39;;;;;;;5.82;5.22;;;9.00;99.90;;;;;;4960672;28;20235;-85
2024/03/28 02:04:07;;;;;;;5.50;4.90;;;9.00;99.90;;;;;;4982097;28;20049;-85
2024/03/28 02:06:37;;;;;;;7.13;5.03;;;9.00;99.90;;;;;;4961377;28;20035;-86
2024/03/28 02:09:03;;;;;;;6.20;5.18;;;9.00;99.90;;;;;;4978110;28;20041;-85
2024/03/28 02:11:33;;;;;;;5.85;4.88;;;9.10;99.90;;;;;;4977641;28;20023;-85
2024/03/28 02:14:00;;;;;;;5.80;4.75;;;9.10;99.90;;;;;;4961321;28;20085;-85
2024/03/28 02:16:26;;;;;;;5.28;4.55;;;9.10;99.90;;;;;;4976305;28;20031;-84
2024/03/28 02:18:58;;;;;;;6.28;4.95;;;9.10;99.90;;;;;;4944184;28;20114;-84
2024/03/28 02:21:24;;;;;;;6.63;5.38;;;9.10;99.90;;;;;;4978009;28;20018;-85
2024/03/28 02:23:54;;;;;;;5.82;4.75;;;9.10;99.90;;;;;;4977075;28;20102;-85
2024/03/28 02:26:21;;;;;;;5.17;4.60;;;9.10;99.90;;;;;;4961014;28;20054;-87
2024/03/28 02:28:47;;;;;;;5.60;4.50;;;9.10;99.90;;;;;;4979537;28;20019;-86
2024/03/28 02:31:13;;;;;;;5.18;4.63;;;9.10;99.90;;;;;;4975284;28;20192;-83
2024/03/28 02:33:39;;;;;;;5.18;4.60;;;9.10;99.90;;;;;;4983139;28;20030;-86
2024/03/28 02:36:05;;;;;;;5.22;4.50;;;9.10;99.90;;;;;;4999756;28;20029;-86
2024/03/28 02:38:34;;;;;;;5.55;3.80;;;9.10;99.90;;;;;;4970778;28;20078;-86
2024/03/28 02:41:00;;;;;;;4.43;4.00;;;9.10;99.90;;;;;;4959997;28;20062;-85
2024/03/28 02:43:25;;;;;;;5.30;3.70;;;9.10;99.90;;;;;;4975367;28;20065;-85
2024/03/28 02:45:51;;;;;;;4.97;3.90;;;9.10;99.90;;;;;;4975456;28;20042;-85
2024/03/28 02:48:20;;;;;;;4.13;3.45;;;9.10;99.90;;;;;;4959386;28;20033;-86
2024/03/28 02:50:46;;;;;;;3.97;3.15;;;9.10;99.90;;;;;;4976031;28;20443;-85
2024/03/28 02:53:12;;;;;;;4.00;3.60;;;9.20;99.90;;;;;;4975543;28;20027;-85
2024/03/28 02:55:37;;;;;;;3.30;3.00;;;9.20;99.90;;;;;;4975480;28;20034;-86
2024/03/28 02:58:04;;;;;;;4.15;3.08;;;9.20;99.90;;;;;;4976129;28;20073;-85
2024/03/28 03:00:29;;;;;;;4.30;3.25;;;9.20;99.90;;;;;;4979353;28;20065;-85
2024/03/28 03:02:55;;;;;;;4.50;3.08;;;9.20;99.90;;;;;;4961062;28;20031;-86
2024/03/28 03:05:21;;;;;;;3.47;3.17;;;9.20;99.90;;;;;;4975255;28;20122;-85
2024/03/28 03:07:49;;;;;;;3.60;2.85;;;9.20;99.90;;;;;;4959221;28;20496;-85
2024/03/28 03:10:15;;;;;;;4.13;3.20;;;9.20;99.90;;;;;;4975037;28;20522;-85
2024/03/28 03:12:42;;;;;;;3.25;2.95;;;9.20;99.90;;;;;;4975295;28;20019;-86
2024/03/28 03:15:09;;;;;;;4.55;3.10;;;9.20;99.90;;;;;;4943646;28;20332;-86
2024/03/28 03:17:35;;;;;;;4.43;2.95;;;9.20;99.90;;;;;;4959375;28;20019;-85
2024/03/28 03:20:08;;;;;;;4.20;3.13;;;9.20;99.90;;;;;;4959142;28;20124;-85
2024/03/28 03:22:35;;;;;;;4.47;3.10;;;9.20;99.90;;;;;;4975064;28;20034;-85
2024/03/28 03:25:13;;;;;;;5.22;3.28;;;9.20;99.90;;;;;;4943247;28;20094;-85
2024/03/28 03:34:34;;;;;;;4.28;3.38;;;9.10;99.90;;;;;;4975302;28;20053;-85
2024/03/28 03:35:54;;;;;;;4.35;2.80;;;9.10;99.90;;;;;;4976623;28;20054;-84
2024/03/28 03:38:22;;;;;;;3.72;2.90;;;9.10;99.90;;;;;;4975382;28;20023;-85
2024/03/28 03:40:48;;;;;;;3.65;3.10;;;9.00;99.90;;;;;;4962315;28;20026;-86
2024/03/28 03:43:14;;;;;;;4.00;3.38;;;9.00;99.90;;;;;;4977732;28;20417;-85
2024/03/28 03:45:43;;;;;;;3.80;3.45;;;9.00;99.90;;;;;;4960990;28;20027;-85
2024/03/28 03:48:08;;;;;;;4.63;3.90;;;8.90;99.90;;;;;;4991005;28;20034;-85
2024/03/28 03:50:34;;;;;;;5.40;4.55;;;8.90;99.90;;;;;;4979997;28;20031;-86
2024/03/28 03:53:00;;;;;;;5.80;4.10;;;8.90;99.90;;;;;;4987831;28;20023;-85
2024/03/28 03:55:26;;;;;;;4.85;3.97;;;8.90;99.90;;;;;;4983143;28;20047;-83
2024/03/28 03:57:51;;;;;;;4.78;4.15;;;8.90;99.90;;;;;;4970740;28;20046;-85
2024/03/28 04:00:17;;;;;;;5.85;4.10;;;8.80;99.90;;;;;;4976040;28;20034;-86
2024/03/28 04:02:45;;;;;;;5.40;4.25;;;8.80;99.90;;;;;;4998105;28;20035;-87
2024/03/28 04:05:12;;;;;;;5.70;4.70;;;8.80;99.90;;;;;;4998587;28;20011;-86
2024/03/28 04:07:40;;;;;;;4.35;3.55;;;8.70;99.90;;;;;;4998441;28;20025;-86
2024/03/28 04:10:06;;;;;;;6.22;4.00;;;8.70;99.90;;;;;;4985891;28;20027;-85
2024/03/28 04:12:32;;;;;;;4.30;3.70;;;8.70;99.90;;;;;;4978793;28;20038;-85
2024/03/28 04:14:57;;;;;;;5.22;4.20;;;8.70;99.90;;;;;;4975425;28;20023;-85
2024/03/28 04:17:23;;;;;;;4.40;3.45;;;8.70;99.90;;;;;;4942692;28;20523;-86
2024/03/28 04:19:48;;;;;;;4.07;3.67;;;8.70;99.90;;;;;;4958706;28;20069;-85
2024/03/28 04:22:14;;;;;;;3.58;3.15;;;8.70;99.90;;;;;;4974638;28;20027;-85
2024/03/28 04:24:42;;;;;;;4.72;3.50;;;8.70;99.90;;;;;;4977104;28;20026;-85
2024/03/28 04:27:08;;;;;;;3.80;3.40;;;8.70;99.90;;;;;;4962294;28;20037;-85
2024/03/28 04:29:34;;;;;;;4.05;3.30;;;8.70;99.90;;;;;;4977636;28;20035;-85
2024/03/28 04:31:59;;;;;;;5.18;3.33;;;8.70;99.90;;;;;;4977809;28;20023;-85
2024/03/28 04:34:27;;;;;;;3.90;3.30;;;8.70;99.90;;;;;;4961875;28;20027;-85
2024/03/28 04:36:53;;;;;;;4.03;3.10;;;8.70;99.90;;;;;;4978868;28;20463;-85
2024/03/28 04:39:18;;;;;;;3.72;3.35;;;8.70;99.90;;;;;;4977414;28;20026;-86
2024/03/28 04:41:44;;;;;;;3.50;3.20;;;8.70;99.90;;;;;;4961498;28;20118;-86
2024/03/28 04:44:11;;;;;;;4.88;3.53;;;8.70;99.90;;;;;;4977392;28;20407;-86
2024/03/28 04:46:36;;;;;;;5.32;3.60;;;8.70;99.90;;;;;;4961165;28;20462;-86
2024/03/28 04:49:03;;;;;;;4.47;3.85;;;8.70;99.90;;;;;;4978706;28;20034;-86
2024/03/28 04:51:28;;;;;;;5.00;4.03;;;8.70;99.90;;;;;;4978480;28;20021;-85
2024/03/28 04:53:54;;;;;;;6.03;4.68;;;8.70;99.90;;;;;;4960824;28;20379;-86
2024/03/28 04:56:23;;;;;;;5.38;4.40;;;8.70;99.90;;;;;;4976866;28;20027;-86
2024/03/28 04:58:48;;;;;;;6.55;4.90;;;8.70;99.90;;;;;;4993108;28;20078;-86
2024/03/28 05:01:17;;;;;;;7.35;5.57;;;8.70;99.90;;;;;;4964640;28;20064;-85
2024/03/28 05:03:42;;;;;;;6.90;5.22;;;8.60;99.90;;;;;;4980468;28;20018;-87
2024/03/28 05:06:08;;;;;;;6.32;5.30;;;8.60;99.90;;;;;;4980268;28;20033;-87
2024/03/28 05:08:40;;;;;;;7.07;5.28;;;8.60;99.90;;;;;;4997717;28;20096;-85
2024/03/28 05:11:06;;;;;;;6.60;5.32;;;8.60;99.90;;;;;;4981090;28;20466;-85
2024/03/28 05:16:59;;;;;;;7.25;5.22;;;8.50;99.90;;;;;;4998608;28;20474;-85
2024/03/28 05:19:25;;;;;;;10.93;5.35;;;8.50;99.90;;;;;;4998321;28;20108;-86
2024/03/28 05:21:51;;;;;;;9.18;5.60;;;8.50;99.90;;;;;;4980969;28;20020;-86
2024/03/28 05:24:17;;;;;;;10.02;5.95;;;8.50;99.90;;;;;;4964889;28;20424;-86
2024/03/28 05:26:45;;;;;;;6.05;5.07;;;8.50;99.90;;;;;;4965627;28;20030;-85
2024/03/28 05:29:13;;;;;;;11.23;5.70;;;8.50;99.90;;;;;;5000433;28;20027;-84
2024/03/28 05:31:39;;;;;;;15.77;5.68;;;8.50;99.90;;;;;;5003253;28;20022;-84
2024/03/28 05:34:05;;;;;;;7.93;5.68;;;8.40;99.90;;;;;;5003769;28;20015;-87
2024/03/28 05:36:36;;;;;;;11.57;5.78;;;8.40;99.90;;;;;;4996269;28;20121;-87
2024/03/28 05:39:04;;;;;;;17.83;6.35;;;8.40;99.90;;;;;;4980887;28;20026;-87
2024/03/28 05:41:33;;;;;;;12.38;5.75;;;8.30;99.90;;;;;;4997798;28;20018;-86
2024/03/28 05:43:59;;;;;;;7.63;6.05;;;8.30;99.90;;;;;;4964302;28;20022;-86
2024/03/28 05:46:25;;;;;;;5.55;4.93;;;8.30;99.90;;;;;;4980090;28;20025;-85
2024/03/28 05:48:52;;;;;;;7.22;5.43;;;8.30;99.90;;;;;;4963956;28;20026;-86
2024/03/28 05:51:18;;;;;;;6.10;4.85;;;8.30;99.90;;;;;;4979755;28;20027;-85
2024/03/28 05:53:45;;;;;;;7.00;4.70;;;8.30;99.90;;;;;;4964071;28;20035;-85
2024/03/28 05:56:20;;;;;;;4.50;4.10;;;8.30;99.90;;;;;;4997595;28;20386;-87
2024/03/28 05:58:47;;;;;;;5.03;4.25;;;8.30;99.90;;;;;;4979107;28;20431;-85
2024/03/28 06:01:18;;;;;;;5.00;3.80;;;8.40;99.90;;;;;;4963755;28;20029;-86
2024/03/28 06:03:44;;;;;;;7.15;4.65;;;8.40;99.90;;;;;;4979021;28;20445;-87
2024/03/28 06:06:12;;;;;;;6.13;4.70;;;8.40;99.90;;;;;;4963434;28;20113;-85
2024/03/28 06:08:39;;;;;;;4.90;4.00;;;8.40;99.90;;;;;;4979007;28;20042;-85
2024/03/28 06:11:05;;;;;;;6.15;4.30;;;8.50;99.90;;;;;;4979253;28;20138;-87
2024/03/28 06:13:32;;;;;;;5.55;4.53;;;8.50;99.90;;;;;;4979719;28;20038;-88
2024/03/28 06:16:05;;;;;;;5.38;4.28;;;8.50;99.90;;;;;;4978704;28;20034;-85
2024/03/28 06:18:34;;;;;;;5.88;3.92;;;8.50;99.90;;;;;;4979203;28;20424;-86
2024/03/28 06:21:03;;;;;;;5.55;4.43;;;8.50;99.90;;;;;;4978883;28;20029;-87
2024/03/28 06:23:35;;;;;;;14.90;4.75;;;8.50;99.90;;;;;;4963038;28;20113;-86
2024/03/28 06:26:02;;;;;;;9.38;4.28;;;8.60;99.90;;;;;;4979151;28;20022;-85
2024/03/28 06:28:28;;;;;;;4.55;3.40;;;8.60;99.90;;;;;;4979212;28;20077;-85
2024/03/28 06:30:56;;;;;;;5.25;3.78;;;8.60;99.90;;;;;;4963205;28;20347;-85
2024/03/28 06:33:25;;;;;;;6.00;3.78;;;8.70;99.90;;;;;;4979348;28;20497;-85
2024/03/28 06:35:51;;;;;;;7.13;3.78;;;8.70;99.90;;;;;;4979982;28;20061;-85
2024/03/28 06:38:20;;;;;;;4.03;3.50;;;8.70;99.90;;;;;;4981574;28;20030;-86
2024/03/28 06:40:46;;;;;;;5.40;3.50;;;8.70;99.90;;;;;;4963481;28;20030;-87
2024/03/28 06:43:12;;;;;;;6.45;3.60;;;8.70;99.90;;;;;;4979021;28;20467;-86
2024/03/28 06:45:38;;;;;;;4.85;3.42;;;8.80;99.90;;;;;;4963367;28;20034;-87
2024/03/28 06:48:04;;;;;;;3.60;3.28;;;8.80;99.90;;;;;;4963085;28;20454;-86
2024/03/28 06:50:33;;;;;;;4.20;3.40;;;8.80;99.90;;;;;;4963053;28;20339;-86
2024/03/28 06:52:59;;;;;;;5.18;3.10;;;8.80;99.90;;;;;;4980215;28;20105;-85
2024/03/28 06:55:28;;;;;;;3.38;3.08;;;8.80;99.90;;;;;;4985349;28;20065;-86
2024/03/28 06:57:53;;;;;;;3.42;3.13;;;8.80;99.90;;;;;;5001526;28;20085;-85
2024/03/28 07:00:19;;;;;;;4.00;3.33;;;8.90;99.90;;;;;;5018941;28;20018;-87
2024/03/28 07:02:48;;;;;;;3.70;3.05;;;9.00;99.90;;;;;;5001999;28;20007;-86
2024/03/28 07:05:14;;;;;;;4.90;3.65;;;9.00;99.90;;;;;;4993578;28;20022;-85
2024/03/28 07:07:40;;;;;;;3.53;3.10;;;9.10;99.90;;;;;;4968006;28;20029;-87
2024/03/28 07:10:11;;;;;;;3.42;3.13;;;9.20;99.90;;;;;;4981877;28;20041;-85
2024/03/28 07:12:37;;;;;;;3.15;2.80;;;9.20;99.90;;;;;;4963714;28;20093;-87
2024/03/28 07:15:04;;;;;;;3.60;2.42;;;9.30;99.90;;;;;;4977769;28;20014;-87
2024/03/28 07:17:30;;;;;;;3.35;2.92;;;9.40;99.90;;;;;;4978270;28;20041;-85
2024/03/28 07:19:58;;;;;;;3.22;2.45;;;9.40;99.90;;;;;;4978485;28;20076;-87
2024/03/28 07:22:24;;;;;;;3.78;2.72;;;9.50;99.90;;;;;;4961585;28;20032;-85
2024/03/28 07:24:49;;;;;;;3.30;2.45;;;9.60;99.90;;;;;;4977888;28;20120;-87
2024/03/28 07:27:15;;;;;;;2.72;2.20;;;9.60;99.90;;;;;;4977754;28;20026;-86
2024/03/28 07:29:41;;;;;;;2.45;2.25;;;9.70;99.90;;;;;;4977482;28;20027;-86
2024/03/28 07:32:07;;;;;;;3.03;2.30;;;9.80;99.90;;;;;;4977936;28;20466;-87
2024/03/28 07:34:35;;;;;;;2.72;2.20;;;9.90;99.90;;;;;;4978040;28;20022;-86
2024/03/28 07:37:04;;;;;;;2.92;2.45;;;9.90;99.90;;;;;;4994737;28;20034;-86
2024/03/28 07:39:29;;;;;;;2.88;2.60;;;10.00;99.90;;;;;;4977693;28;20080;-86
2024/03/28 07:41:55;;;;;;;3.92;2.80;;;10.00;99.90;;;;;;4961331;28;20034;-86
2024/03/28 07:44:21;;;;;;;4.30;2.63;;;10.10;99.90;;;;;;4977520;28;20025;-86
2024/03/28 07:46:46;;;;;;;3.25;2.50;;;10.10;99.90;;;;;;4977902;28;20033;-85
2024/03/28 07:49:12;;;;;;;2.97;2.30;;;10.10;99.90;;;;;;4978227;28;20023;-86
2024/03/28 07:51:38;;;;;;;3.28;2.40;;;10.20;99.90;;;;;;4978707;28;20093;-86
2024/03/28 07:54:03;;;;;;;2.92;2.40;;;10.30;99.90;;;;;;4961447;28;20015;-85
2024/03/28 07:56:29;;;;;;;3.22;2.45;;;10.30;99.90;;;;;;4977343;28;20027;-86
2024/03/28 07:58:55;;;;;;;2.92;2.38;;;10.30;99.90;;;;;;4963210;28;20430;-86
2024/03/28 08:01:21;;;;;;;5.55;2.50;;;10.20;99.90;;;;;;4949612;28;20029;-87
2024/03/28 08:03:47;;;;;;;6.10;2.15;;;10.30;99.90;;;;;;4981520;28;20073;-86
2024/03/28 08:06:13;;;;;;;9.75;2.75;;;10.30;99.90;;;;;;4981617;28;20030;-86
2024/03/28 08:08:39;;;;;;;3.78;2.33;;;10.30;99.90;;;;;;4965734;28;20038;-86
2024/03/28 08:11:04;;;;;;;2.90;2.00;;;10.30;99.90;;;;;;4981439;28;20114;-86
2024/03/28 08:13:31;;;;;;;8.00;2.65;;;10.30;99.90;;;;;;4983956;28;20458;-86
2024/03/28 08:15:57;;;;;;;3.25;1.50;;;10.30;99.90;;;;;;4984439;28;20473;-87
2024/03/28 08:18:22;;;;;;;8.05;1.85;;;10.30;99.90;;;;;;4983158;28;20030;-86
2024/03/28 08:20:48;;;;;;;3.22;1.58;;;10.30;99.90;;;;;;4982805;28;20034;-86
2024/03/28 08:23:14;;;;;;;7.15;1.60;;;10.40;99.90;;;;;;4999855;28;20339;-85
2024/03/28 08:25:40;;;;;;;17.80;2.45;;;10.30;99.90;;;;;;4987543;28;20090;-86
2024/03/28 08:28:10;;;;;;;15.35;2.33;;;10.30;99.90;;;;;;4988682;28;20018;-86
2024/03/28 08:30:39;;;;;;;4.35;1.63;;;10.30;99.90;;;;;;5004953;28;20015;-85
2024/03/28 08:33:04;;;;;;;1.92;1.52;;;10.30;99.90;;;;;;5021938;28;20011;-86
2024/03/28 08:35:40;;;;;;;2.55;1.58;;;10.30;99.90;;;;;;4993591;28;20116;-87
2024/03/28 08:38:07;;;;;;;3.15;1.58;;;10.20;99.90;;;;;;4981304;28;20103;-87
2024/03/28 08:40:33;;;;;;;1.60;1.35;;;10.20;99.90;;;;;;4981257;28;20034;-87
2024/03/28 08:42:59;;;;;;;2.55;1.60;;;10.20;99.90;;;;;;4965022;28;20347;-88
2024/03/28 08:45:35;;;;;;;3.85;1.70;;;10.10;99.90;;;;;;4981163;28;20033;-87
2024/03/28 08:48:05;;;;;;;4.03;1.50;;;10.10;99.90;;;;;;4998330;28;20022;-87
2024/03/28 08:50:34;;;;;;;3.75;1.70;;;10.10;99.90;;;;;;4981694;28;20364;-89
2024/03/28 08:53:00;;;;;;;2.08;1.83;;;10.10;99.90;;;;;;4998924;28;20426;-89
2024/03/28 08:55:26;;;;;;;1.70;1.50;;;10.10;99.90;;;;;;4998534;28;20026;-88
2024/03/28 08:57:55;;;;;;;2.25;1.70;;;10.10;99.90;;;;;;4981223;28;20059;-88
2024/03/28 09:00:25;;;;;;;3.97;1.25;;;10.10;99.90;;;;;;4965286;28;20022;-88
2024/03/28 09:02:50;;;;;;;1.75;1.48;;;10.00;99.90;;;;;;4998699;28;20018;-88
2024/03/28 09:05:17;;;;;;;2.05;1.42;;;10.10;99.90;;;;;;4965259;28;20065;-89
2024/03/28 09:07:49;;;;;;;2.60;1.70;;;10.10;99.90;;;;;;4998729;28;20022;-88
2024/03/28 09:10:19;;;;;;;;;;;10.10;99.90;;;;;;4980416;28;20015;-87
2024/03/28 09:12:47;;;;;;;1.25;1.08;;;10.10;99.90;;;;;;4998567;28;19952;-88
2024/03/28 09:15:14;;;;;;;1.77;1.45;;;10.10;99.90;;;;;;4965032;28;20026;-87
2024/03/28 09:17:42;;;;;;;1.38;1.27;;;10.10;99.90;;;;;;4980771;28;20022;-87
2024/03/28 09:20:08;;;;;;;1.42;1.10;;;10.20;99.90;;;;;;4980806;28;20390;-89
2024/03/28 09:22:41;;;;;;;2.30;1.33;;;10.20;99.90;;;;;;4981342;28;20022;-88
2024/03/28 09:25:09;;;;;;;3.03;1.23;;;10.20;99.90;;;;;;4964703;28;20108;-89
2024/03/28 09:27:35;;;;;;;5.60;1.77;;;10.20;99.90;;;;;;4949160;28;20033;-89
2024/03/28 09:30:04;;;;;;;3.38;1.90;;;10.20;99.90;;;;;;4980360;28;20447;-87
2024/03/28 09:32:33;;;;;;;2.70;1.50;;;10.20;99.90;;;;;;4980415;28;20049;-88
2024/03/28 09:34:59;;;;;;;2.38;1.45;;;10.20;99.90;;;;;;4948241;28;20485;-89
2024/03/28 09:37:25;;;;;;;2.92;1.60;;;10.20;99.90;;;;;;4980102;28;20122;-88
2024/03/28 09:39:51;;;;;;;1.88;1.70;;;10.20;99.90;;;;;;4980342;28;20128;-90
2024/03/28 09:42:22;;;;;;;1.35;1.25;;;10.20;99.90;;;;;;4980164;28;20027;-89
2024/03/28 09:44:50;;;;;;;1.58;1.40;;;10.20;99.90;;;;;;4980183;28;20522;-89
2024/03/28 09:47:18;;;;;;;2.60;1.52;;;10.20;99.90;;;;;;4980222;28;20082;-90
2024/03/28 09:49:50;;;;;;;1.85;1.40;;;10.20;99.90;;;;;;4980478;28;20076;-89
2024/03/28 09:52:18;;;;;;;1.95;1.35;;;10.20;99.90;;;;;;4997687;28;20466;-88
2024/03/28 09:54:46;;;;;;;1.52;1.35;;;10.20;99.90;;;;;;4980495;28;20021;-89
2024/03/28 09:57:12;;;;;;;2.08;1.48;;;10.20;99.90;;;;;;4992329;28;20018;-88
2024/03/28 09:59:40;;;;;;;1.58;1.40;;;10.20;99.90;;;;;;5002629;28;20130;-86
2024/03/28 10:02:13;;;;;;;2.08;1.40;;;10.20;99.90;;;;;;4971899;28;20022;-88
2024/03/28 10:04:43;;;;;;;2.25;1.20;;;10.20;99.90;;;;;;5003264;28;20018;-88
2024/03/28 10:07:10;;;;;;;1.65;1.40;;;10.20;99.90;;;;;;4991586;28;20022;-89
2024/03/28 10:09:44;;;;;;;1.30;1.20;;;10.20;99.90;;;;;;4986185;28;20021;-89
2024/03/28 10:12:11;;;;;;;2.92;1.23;;;10.20;99.90;;;;;;4982216;28;20018;-88
2024/03/28 10:14:38;;;;;;;1.63;1.50;;;10.20;99.90;;;;;;4980875;28;20382;-88
2024/03/28 10:17:05;;;;;;;1.58;1.40;;;10.20;99.90;;;;;;4980872;28;20035;-89
2024/03/28 10:19:34;;;;;;;1.50;1.10;;;10.20;99.90;;;;;;4997988;28;20026;-89
2024/03/28 10:22:16;;;;;;;1.33;1.23;;;10.20;99.90;;;;;;4980520;28;20022;-88
2024/03/28 10:24:48;;;;;;;1.77;1.25;;;10.20;99.90;;;;;;4980760;28;20466;-88
2024/03/28 10:27:23;;;;;;;2.88;1.35;;;10.10;99.90;;;;;;4982014;28;20101;-89
2024/03/28 10:29:55;;;;;;;2.10;1.00;;;10.10;99.90;;;;;;4980797;28;20023;-88
2024/03/28 10:32:26;;;;;;;1.17;1.08;;;10.10;99.90;;;;;;4979820;28;20018;-88
2024/03/28 10:34:55;;;;;;;1.38;1.27;;;10.10;99.90;;;;;;4979786;28;20084;-90
2024/03/28 10:37:26;;;;;;;1.67;1.42;;;10.00;99.90;;;;;;4979562;28;20077;-87
2024/03/28 10:39:55;;;;;;;1.27;0.93;;;10.00;99.90;;;;;;4964217;28;20026;-89
2024/03/28 10:42:21;;;;;;;1.70;0.85;;;9.80;99.90;;;;;;4979567;28;20442;-89
2024/03/28 10:44:49;;;;;;;1.05;0.90;;;9.80;99.90;;;;;;4979663;28;20029;-89
2024/03/28 10:47:16;;;;;;;1.10;0.90;;;9.80;99.90;;;;;;4947452;28;20522;-88
2024/03/28 10:49:50;;;;;;;1.52;0.70;;;9.70;99.90;;;;;;4979017;28;20105;-88
2024/03/28 10:52:31;;;;;;;0.93;0.70;;;9.80;99.90;;;;;;4978933;28;20014;-89
2024/03/28 10:55:08;;;;;;;0.70;0.60;;;9.80;99.90;;;;;;4996190;28;20022;-87
2024/03/28 10:57:34;;;;;;;1.70;0.73;;;9.70;99.90;;;;;;4995924;28;20031;-89
2024/03/28 11:00:04;;;;;;;1.00;0.60;;;9.80;99.90;;;;;;4978760;28;20038;-87
2024/03/28 11:02:32;;;;;;;0.75;0.52;;;9.70;99.90;;;;;;4996400;28;20083;-87
2024/03/28 11:04:59;;;;;;;3.35;0.85;;;9.80;99.90;;;;;;4979326;28;20481;-88
2024/03/28 11:07:28;;;;;;;1.27;0.80;;;9.80;99.90;;;;;;4963082;28;20061;-88
2024/03/28 11:09:58;;;;;;;1.10;0.77;;;9.80;99.90;;;;;;4963657;28;20030;-87
2024/03/28 11:12:25;;;;;;;0.70;0.70;;;9.80;99.90;;;;;;5000926;28;20023;-89
2024/03/28 11:15:04;;;;;;;0.82;0.80;;;9.90;99.90;;;;;;4981183;28;20116;-87
2024/03/28 11:17:40;;;;;;;1.40;1.00;;;9.80;99.90;;;;;;4991034;28;20019;-87
2024/03/28 11:20:08;;;;;;;1.88;0.90;;;9.90;99.90;;;;;;4964107;28;20046;-88
2024/03/28 11:22:38;;;;;;;1.67;1.05;;;9.90;99.90;;;;;;4996352;28;20023;-89
2024/03/28 11:25:27;;;;;;;1.13;0.90;;;10.00;99.90;;;;;;4978938;28;20019;-87
2024/03/28 11:28:10;;;;;;;1.27;1.02;;;10.00;99.90;;;;;;5010117;28;20144;-88
2024/03/28 11:30:37;;;;;;;1.38;1.25;;;10.10;99.90;;;;;;5002367;28;20027;-86
2024/03/28 11:33:13;;;;;;;2.92;1.70;;;10.10;99.90;;;;;;5001447;28;20010;-88
2024/03/28 11:35:41;;;;;;;1.30;1.20;;;10.10;99.90;;;;;;4985493;28;20442;-87
2024/03/28 11:38:09;;;;;;;3.15;1.40;;;10.20;99.90;;;;;;4962446;28;20033;-87
2024/03/28 11:40:36;;;;;;;1.90;1.70;;;10.20;99.90;;;;;;4978492;28;20041;-87
2024/03/28 11:43:09;;;;;;;4.10;1.55;;;10.30;99.90;;;;;;4977954;28;20064;-89
2024/03/28 11:45:46;;;;;;;3.35;1.65;;;10.40;99.90;;;;;;4978350;28;20030;-87
2024/03/28 11:48:12;;;;;;;2.95;1.50;;;10.40;99.90;;;;;;4995610;28;20022;-89
2024/03/28 11:50:39;;;;;;;3.00;2.00;;;10.40;99.90;;;;;;4946179;28;20032;-87
2024/03/28 11:53:06;;;;;;;2.55;2.00;;;10.40;99.90;;;;;;4977714;28;20373;-88
2024/03/28 11:55:35;;;;;;;4.80;2.50;;;10.40;99.90;;;;;;4977799;28;20064;-87
2024/03/28 11:58:09;;;;;;;3.00;2.00;;;10.50;99.90;;;;;;4977549;28;20023;-87
2024/03/28 12:00:35;;;;;;;5.20;2.25;;;10.50;99.90;;;;;;4977563;28;20022;-87
2024/03/28 12:03:07;;;;;;;4.68;3.13;;;10.50;99.90;;;;;;4977779;28;20030;-88
2024/03/28 12:05:32;;;;;;;5.78;2.90;;;10.50;99.90;;;;;;4977693;28;20026;-86
2024/03/28 12:07:58;;;;;;;4.50;2.88;;;10.50;99.90;;;;;;4961548;28;20419;-87
2024/03/28 12:10:24;;;;;;;4.10;3.65;;;10.60;99.90;;;;;;4977153;28;20025;-86
2024/03/28 12:12:50;;;;;;;4.18;2.83;;;10.60;99.90;;;;;;4978027;28;20041;-87
2024/03/28 12:15:17;;;;;;;8.50;4.13;;;10.70;99.90;;;;;;4977756;28;20113;-86
2024/03/28 12:17:43;;;;;;;6.68;3.47;;;10.80;99.90;;;;;;4977603;28;20025;-88
2024/03/28 12:20:20;;;;;;;6.85;3.38;;;10.90;99.90;;;;;;4977656;28;20023;-87
2024/03/28 12:22:49;;;;;;;3.58;3.08;;;11.00;99.90;;;;;;4962812;28;20474;-88
2024/03/28 12:25:15;;;;;;;3.50;3.15;;;11.00;99.90;;;;;;4977830;28;20109;-89
2024/03/28 12:27:55;;;;;;;4.25;3.30;;;11.10;99.90;;;;;;4994995;28;20157;-85
2024/03/28 12:30:23;;;;;;;4.50;3.00;;;11.20;99.90;;;;;;4977794;28;20018;-88
2024/03/28 12:33:02;;;;;;;5.55;3.10;;;11.30;99.90;;;;;;4978514;28;20023;-88
2024/03/28 12:35:33;;;;;;;4.07;2.80;;;11.30;99.90;;;;;;4978045;28;20019;-87
2024/03/28 12:38:01;;;;;;;4.72;2.70;;;11.40;99.90;;;;;;4979481;28;20061;-87
2024/03/28 12:40:27;;;;;;;5.03;2.95;;;11.50;99.90;;;;;;4978252;28;20029;-86
2024/03/28 12:42:54;;;;;;;3.17;2.42;;;11.50;99.90;;;;;;4977989;28;20057;-86
2024/03/28 12:45:22;;;;;;;3.03;2.60;;;11.50;99.90;;;;;;4979995;28;20030;-87
2024/03/28 12:47:51;;;;;;;3.95;2.42;;;11.60;99.90;;;;;;4981221;28;20042;-88
2024/03/28 12:50:19;;;;;;;4.45;2.17;;;11.70;99.90;;;;;;4981352;28;20025;-87
2024/03/28 12:52:52;;;;;;;4.43;2.13;;;11.70;99.90;;;;;;4981456;28;20018;-87
2024/03/28 12:55:19;;;;;;;4.32;1.60;;;11.80;99.90;;;;;;4981550;28;20022;-88
2024/03/28 12:57:46;;;;;;;4.32;1.80;;;11.90;99.90;;;;;;4981787;28;20019;-88
2024/03/28 13:00:13;;;;;;;3.45;1.60;;;12.10;99.90;;;;;;4983302;28;20057;-85
2024/03/28 13:02:39;;;;;;;3.90;1.38;;;12.10;99.90;;;;;;5004823;28;20070;-87
2024/03/28 13:05:05;;;;;;;2.28;1.23;;;12.30;99.90;;;;;;5004357;28;20006;-86